CheckWX is a tool to help pilots better visualize weather data.  It is not intended as a substitute for an official pre-flight weather briefing.

07:13:41 UTC

8A3 METAR
Livingston Municipal Airport
Livingston, Tennessee, USA
Current

19 mins ago

K8A3 260655Z AUTO 00000KT 10SM CLR 22/16 A3013 RMK A01
Observed
May-26 @ 06:55 UTC
Visibility
10 SM
Flight Rules
VFR
Cloud Levels
  • Clear skies
Temperature
22°C / 72°F
Dewpoint
16°C / 61°F
Humidity
69%
Altimeter
30.13" Hg
Pressure
1020.32 hPa
Previous

39 mins ago

K8A3 260635Z AUTO 00000KT 10SM CLR 22/17 A3013 RMK A01
Observed
May-26 @ 06:35 UTC
Visibility
10 SM
Flight Rules
VFR
Cloud Levels
  • Clear skies
Temperature
22°C / 72°F
Dewpoint
17°C / 63°F
Humidity
73%
Altimeter
30.13" Hg
Pressure
1020.32 hPa
Previous

59 mins ago

K8A3 260615Z AUTO 21004KT 10SM CLR 22/17 A3013 RMK A01
Observed
May-26 @ 06:15 UTC
Wind
  • 210° at 4 KTS
Visibility
10 SM
Flight Rules
VFR
Cloud Levels
  • Clear skies
Temperature
22°C / 72°F
Dewpoint
17°C / 63°F
Humidity
73%
Altimeter
30.13" Hg
Pressure
1020.32 hPa